Terminal Aerodrome Forecast
Issued by NWS

Home | Current Version | Previous Version | Text Only | Print | Product List | Glossary On
Versions: 1 2 3 4 5 6 7 8 9 10 11 12 13
413
FTPA31 PHFO 250530
TAFHJR
TAF
PHJR 250530Z 2506/2606 VRB03KT P6SM FEW030 SCT050
      TEMPO 2506/2508 BKN025
     FM252000 09011G17KT P6SM FEW030 FEW045
     FM260500 VRB03KT P6SM FEW030 SCT050=

USA.gov is the U.S. government's official web portal to all federal, state and local government web resources and services.